createdAt,value
2022-09-09T00:02:55.920Z,14.24
2022-09-09T00:06:05.736Z,14.18
2022-09-09T00:09:13.135Z,14.12
2022-09-09T00:12:18.369Z,14.09
2022-09-09T00:15:21.666Z,14.09
2022-09-09T00:18:30.370Z,14.07
2022-09-09T00:21:34.163Z,14.11
2022-09-09T00:24:40.084Z,14.12
2022-09-09T00:27:45.844Z,14.14
2022-09-09T00:30:53.379Z,14.17
2022-09-09T00:33:59.985Z,14.13
2022-09-09T00:37:04.521Z,14.11
2022-09-09T00:40:12.687Z,14.08
2022-09-09T00:43:27.199Z,14.05
2022-09-09T00:46:41.791Z,14.00
2022-09-09T00:49:50.988Z,13.98
2022-09-09T00:52:58.683Z,13.99
2022-09-09T00:56:06.580Z,14.00
2022-09-09T00:59:17.717Z,14.02
2022-09-09T01:02:26.396Z,14.01
2022-09-09T01:05:34.615Z,13.99
2022-09-09T01:08:51.005Z,13.97
2022-09-09T01:11:56.857Z,13.97
2022-09-09T01:15:04.558Z,13.95
2022-09-09T01:18:08.323Z,13.97
2022-09-09T01:21:18.803Z,13.97
2022-09-09T01:24:23.297Z,13.92
2022-09-09T01:27:26.847Z,13.93
2022-09-09T01:30:29.210Z,13.97
2022-09-09T01:33:31.446Z,14.00
2022-09-09T01:36:39.684Z,14.05
2022-09-09T01:39:42.900Z,14.08
2022-09-09T01:42:46.043Z,14.08
2022-09-09T01:45:50.739Z,14.05
2022-09-09T01:48:53.590Z,14.01
2022-09-09T01:51:58.756Z,13.99
2022-09-09T01:55:00.476Z,13.96
2022-09-09T01:58:14.532Z,13.93
2022-09-09T02:01:19.646Z,13.91
2022-09-09T02:04:28.542Z,13.94
2022-09-09T02:07:38.409Z,13.94
2022-09-09T02:10:43.568Z,13.96
2022-09-09T02:13:48.407Z,13.93
2022-09-09T02:16:52.343Z,13.87
2022-09-09T02:19:56.371Z,13.92
2022-09-09T02:22:58.528Z,13.90
2022-09-09T02:26:01.300Z,13.89
2022-09-09T02:29:07.281Z,13.93
2022-09-09T02:32:14.098Z,13.89
2022-09-09T02:35:18.479Z,13.89
2022-09-09T02:38:22.366Z,13.86
2022-09-09T02:41:27.123Z,13.85
2022-09-09T02:44:30.636Z,13.83
2022-09-09T02:47:35.459Z,13.79
2022-09-09T02:50:47.929Z,13.72
2022-09-09T02:53:55.176Z,13.66
2022-09-09T02:56:57.639Z,13.59
2022-09-09T03:00:04.428Z,13.67
2022-09-09T03:03:06.708Z,13.62
2022-09-09T03:06:08.603Z,13.57
2022-09-09T03:09:12.820Z,13.53
2022-09-09T03:12:14.510Z,13.52
2022-09-09T03:15:18.298Z,13.61
2022-09-09T03:18:20.132Z,13.66
2022-09-09T03:21:21.919Z,13.61
2022-09-09T03:24:23.880Z,13.61
2022-09-09T03:27:25.715Z,13.60
2022-09-09T03:30:29.160Z,13.62
2022-09-09T03:33:32.444Z,13.63
2022-09-09T03:36:34.182Z,13.66
2022-09-09T03:39:36.243Z,13.71
2022-09-09T03:42:40.737Z,13.68
2022-09-09T03:45:47.286Z,13.70
2022-09-09T03:48:49.477Z,13.71
2022-09-09T03:51:52.468Z,13.72
2022-09-09T03:54:54.878Z,13.72
2022-09-09T03:57:56.716Z,13.74
2022-09-09T04:01:01.137Z,13.75
2022-09-09T04:04:03.378Z,13.75
2022-09-09T04:07:10.288Z,13.73
2022-09-09T04:10:12.762Z,13.73
2022-09-09T04:13:15.254Z,13.75
2022-09-09T04:19:57.558Z,13.77
2022-09-09T04:22:59.186Z,13.81
2022-09-09T04:26:01.690Z,13.82
2022-09-09T04:29:04.023Z,13.87
2022-09-09T04:32:06.357Z,13.87
2022-09-09T04:35:09.646Z,13.85
2022-09-09T04:38:11.398Z,13.83
2022-09-09T04:41:13.389Z,13.86
2022-09-09T04:44:15.159Z,13.89
2022-09-09T04:47:17.965Z,13.88
2022-09-09T04:50:21.268Z,13.88
2022-09-09T04:53:23.192Z,13.89
2022-09-09T04:56:28.131Z,13.90
2022-09-09T04:59:30.005Z,13.91
2022-09-09T05:02:33.898Z,13.91
2022-09-09T05:05:37.613Z,13.92
2022-09-09T05:08:43.180Z,13.91
2022-09-09T05:11:45.076Z,13.93
2022-09-09T05:14:47.023Z,13.94
2022-09-09T05:17:50.375Z,13.94
2022-09-09T05:20:53.861Z,13.94
2022-09-09T05:23:55.845Z,13.93
2022-09-09T05:26:59.696Z,13.92
2022-09-09T05:30:01.469Z,13.92
2022-09-09T05:33:04.526Z,13.93
2022-09-09T05:36:09.173Z,13.94
2022-09-09T05:39:13.199Z,13.93
2022-09-09T05:42:19.200Z,13.92
2022-09-09T05:45:20.964Z,13.96
2022-09-09T05:48:22.639Z,13.96
2022-09-09T05:51:26.273Z,13.96
2022-09-09T05:54:29.515Z,13.95
2022-09-09T05:57:31.269Z,13.97
2022-09-09T06:00:33.310Z,14.00
2022-09-09T06:03:35.670Z,14.04
2022-09-09T06:06:40.617Z,14.08
2022-09-09T06:09:44.878Z,14.11
2022-09-09T06:12:46.625Z,14.14
2022-09-09T06:15:52.304Z,14.19
2022-09-09T06:18:57.530Z,14.23
2022-09-09T06:22:01.681Z,14.31
2022-09-09T06:25:03.891Z,14.38
2022-09-09T06:28:06.169Z,14.38
2022-09-09T06:31:09.089Z,14.43
2022-09-09T06:34:12.759Z,14.48
2022-09-09T06:37:16.620Z,14.56
2022-09-09T06:40:19.075Z,14.62
2022-09-09T06:43:21.833Z,14.74
2022-09-09T06:46:24.072Z,14.90
2022-09-09T06:49:26.182Z,14.96
2022-09-09T06:52:29.534Z,14.97
2022-09-09T06:55:31.365Z,14.98
2022-09-09T06:58:33.495Z,15.00
2022-09-09T07:01:39.178Z,14.99
2022-09-09T07:04:40.996Z,15.01
2022-09-09T07:07:47.256Z,15.02
2022-09-09T07:10:49.060Z,15.04
2022-09-09T07:13:50.977Z,15.03
2022-09-09T07:16:55.451Z,15.02
2022-09-09T07:20:00.910Z,15.03
2022-09-09T07:23:04.258Z,15.06
2022-09-09T07:26:11.802Z,15.06
2022-09-09T07:29:18.502Z,15.07
2022-09-09T07:32:26.732Z,15.08
2022-09-09T07:35:28.666Z,15.11
2022-09-09T07:38:31.863Z,15.09
2022-09-09T07:41:35.506Z,15.07
2022-09-09T07:44:37.618Z,15.07
2022-09-09T07:47:39.329Z,15.10
2022-09-09T07:50:41.244Z,15.12
2022-09-09T07:53:44.556Z,15.15
2022-09-09T07:56:46.421Z,15.22
2022-09-09T07:59:50.586Z,15.27
2022-09-09T08:02:58.250Z,15.31
2022-09-09T08:06:05.636Z,15.37
2022-09-09T08:09:09.750Z,15.39
2022-09-09T08:12:14.210Z,15.47
2022-09-09T08:15:15.790Z,15.51
2022-09-09T08:18:17.487Z,15.56
2022-09-09T08:21:26.912Z,15.62
2022-09-09T08:24:30.433Z,15.69
2022-09-09T08:27:33.277Z,15.69
2022-09-09T08:30:34.786Z,15.76
2022-09-09T08:33:38.598Z,15.82
2022-09-09T08:36:42.965Z,15.91
2022-09-09T08:39:46.492Z,16.05
2022-09-09T08:42:50.707Z,16.14
2022-09-09T08:45:57.833Z,16.16
2022-09-09T08:49:03.140Z,16.18
2022-09-09T08:52:11.670Z,16.30
2022-09-09T08:55:22.462Z,16.41
2022-09-09T08:58:27.245Z,16.66
2022-09-09T09:01:44.013Z,16.73
2022-09-09T09:05:03.257Z,16.73
2022-09-09T09:08:09.546Z,16.71
2022-09-09T09:11:12.583Z,16.64
2022-09-09T09:14:19.805Z,16.60
2022-09-09T09:17:22.458Z,16.52
2022-09-09T09:20:28.421Z,16.50
2022-09-09T09:23:36.591Z,16.51
2022-09-09T09:26:39.759Z,16.52
2022-09-09T09:30:03.505Z,16.62
2022-09-09T09:33:07.460Z,16.68
2022-09-09T09:36:09.565Z,16.68
2022-09-09T09:42:35.209Z,17.08
2022-09-09T09:45:46.740Z,17.22
2022-09-09T09:48:58.543Z,17.10
2022-09-09T09:52:01.375Z,17.17
2022-09-09T09:55:07.846Z,17.21
2022-09-09T09:58:18.600Z,17.53
2022-09-09T10:01:21.895Z,17.62
2022-09-09T10:04:27.317Z,17.52
2022-09-09T10:07:30.374Z,17.36
2022-09-09T10:10:47.452Z,17.28
2022-09-09T10:13:58.894Z,17.21
2022-09-09T10:17:10.830Z,17.16
2022-09-09T10:20:21.721Z,17.06
2022-09-09T10:23:31.030Z,16.99
2022-09-09T10:26:37.196Z,16.91
2022-09-09T10:29:48.371Z,16.24
2022-09-09T10:32:53.907Z,15.44
2022-09-09T10:36:02.748Z,15.13
2022-09-09T10:39:06.319Z,14.88
2022-09-09T10:42:10.772Z,14.89
2022-09-09T10:45:20.709Z,14.88
2022-09-09T10:48:31.828Z,14.89
2022-09-09T10:51:38.773Z,15.02
2022-09-09T10:54:47.818Z,15.38
2022-09-09T10:57:50.629Z,15.99
2022-09-09T11:00:59.060Z,16.12
2022-09-09T11:04:03.553Z,16.15
2022-09-09T11:07:11.662Z,16.17
2022-09-09T11:10:19.890Z,16.23
2022-09-09T11:13:25.645Z,16.30
2022-09-09T11:16:31.889Z,16.39
2022-09-09T11:19:35.415Z,16.39
2022-09-09T11:22:39.784Z,16.40
2022-09-09T11:25:43.142Z,16.47
2022-09-09T11:28:53.042Z,16.50
2022-09-09T11:32:04.765Z,16.60
2022-09-09T11:35:15.076Z,16.88
2022-09-09T11:38:26.491Z,17.27
2022-09-09T11:41:35.762Z,17.48
2022-09-09T11:47:40.884Z,17.84
2022-09-09T11:50:43.227Z,18.05
2022-09-09T11:53:52.326Z,18.19
2022-09-09T11:56:54.662Z,17.99
2022-09-09T12:00:06.657Z,18.31
2022-09-09T12:03:31.062Z,18.30
2022-09-09T12:06:34.117Z,18.35
2022-09-09T12:09:47.797Z,18.33
2022-09-09T12:12:50.290Z,18.30
2022-09-09T12:15:54.305Z,18.28
2022-09-09T12:19:04.174Z,18.36
2022-09-09T12:22:09.119Z,18.45
2022-09-09T12:25:21.365Z,18.45
2022-09-09T12:28:27.023Z,18.37
2022-09-09T12:31:33.546Z,18.38
2022-09-09T12:34:39.569Z,18.55
2022-09-09T12:37:43.800Z,19.00
2022-09-09T12:40:55.112Z,19.08
2022-09-09T12:44:05.079Z,19.09
2022-09-09T12:47:06.691Z,18.97
2022-09-09T12:50:17.878Z,18.69
2022-09-09T12:53:26.191Z,18.52
2022-09-09T12:56:30.604Z,18.70
2022-09-09T12:59:37.156Z,19.00
2022-09-09T13:02:46.373Z,19.10
2022-09-09T13:05:50.131Z,19.20
2022-09-09T13:08:52.328Z,19.44
2022-09-09T13:11:57.532Z,19.50
2022-09-09T13:14:59.236Z,19.22
2022-09-09T13:18:05.735Z,19.01
2022-09-09T13:21:09.462Z,19.01
2022-09-09T13:24:28.070Z,19.47
2022-09-09T13:27:31.393Z,19.74
2022-09-09T13:30:37.486Z,19.93
2022-09-09T13:33:40.248Z,19.96
2022-09-09T13:36:49.844Z,19.77
2022-09-09T13:39:54.370Z,19.80
2022-09-09T13:42:57.446Z,19.95
2022-09-09T13:46:00.541Z,19.93
2022-09-09T13:49:03.453Z,19.65
2022-09-09T13:52:09.780Z,19.38
2022-09-09T13:55:11.319Z,19.38
2022-09-09T13:58:16.830Z,19.34
2022-09-09T14:01:18.966Z,19.44
2022-09-09T14:04:27.139Z,19.34
2022-09-09T14:07:31.411Z,19.27
2022-09-09T14:10:33.251Z,19.14
2022-09-09T14:13:35.619Z,19.04
2022-09-09T14:16:38.725Z,19.29
2022-09-09T14:19:40.498Z,19.71
2022-09-09T14:22:45.352Z,19.79
2022-09-09T14:25:47.738Z,19.89
2022-09-09T14:28:57.165Z,19.87
2022-09-09T14:32:08.336Z,19.68
2022-09-09T14:35:13.784Z,19.84
2022-09-09T14:38:19.163Z,19.94
2022-09-09T14:41:23.590Z,20.00
2022-09-09T14:44:25.339Z,20.13
2022-09-09T14:47:34.071Z,19.87
2022-09-09T14:50:40.774Z,19.63
2022-09-09T14:53:44.420Z,19.53
2022-09-09T14:56:46.197Z,19.51
2022-09-09T14:59:47.948Z,19.73
2022-09-09T15:02:52.951Z,19.64
2022-09-09T15:05:54.702Z,19.51
2022-09-09T15:09:03.883Z,19.39
2022-09-09T15:12:05.767Z,19.29
2022-09-09T15:15:08.237Z,19.24
2022-09-09T15:18:11.331Z,19.17
2022-09-09T15:21:14.331Z,19.11
2022-09-09T15:24:19.989Z,19.13
2022-09-09T15:27:22.563Z,19.10
2022-09-09T15:30:24.231Z,19.06
2022-09-09T15:33:30.449Z,19.01
2022-09-09T15:36:35.955Z,18.99
2022-09-09T15:39:39.162Z,18.99
2022-09-09T15:42:41.221Z,18.99
2022-09-09T15:45:43.146Z,19.00
2022-09-09T15:48:47.449Z,18.97
2022-09-09T15:51:52.107Z,18.92
2022-09-09T15:54:55.928Z,18.93
2022-09-09T15:57:59.587Z,18.88
2022-09-09T16:01:04.550Z,18.87
2022-09-09T16:04:06.357Z,18.82
2022-09-09T16:07:09.067Z,18.76
2022-09-09T16:10:14.694Z,18.72
2022-09-09T16:13:16.780Z,18.66
2022-09-09T16:16:23.010Z,18.65
2022-09-09T16:19:25.985Z,18.62
2022-09-09T16:22:27.754Z,18.60
2022-09-09T16:25:39.031Z,18.59
2022-09-09T16:28:40.942Z,18.53
2022-09-09T16:31:43.105Z,18.49
2022-09-09T16:34:44.880Z,18.45
2022-09-09T16:37:46.834Z,18.40
2022-09-09T16:40:51.164Z,18.33
2022-09-09T16:43:53.806Z,18.29
2022-09-09T16:47:00.383Z,18.26
2022-09-09T16:50:04.227Z,18.22
2022-09-09T16:53:07.766Z,18.16
2022-09-09T16:56:15.045Z,18.08
2022-09-09T16:59:19.024Z,17.98
2022-09-09T17:02:21.054Z,17.89
2022-09-09T17:05:24.384Z,17.81
2022-09-09T17:08:26.204Z,17.75
2022-09-09T17:11:29.770Z,17.71
2022-09-09T17:14:32.259Z,17.68
2022-09-09T17:17:33.989Z,17.64
2022-09-09T17:20:45.964Z,17.54
2022-09-09T17:23:49.449Z,17.46
2022-09-09T17:26:53.099Z,17.39
2022-09-09T17:29:55.387Z,17.26
2022-09-09T17:32:56.992Z,17.04
2022-09-09T17:36:00.378Z,16.75
2022-09-09T17:39:02.381Z,16.60
2022-09-09T17:42:05.869Z,16.29
2022-09-09T17:45:07.791Z,16.06
2022-09-09T17:48:09.304Z,15.86
2022-09-09T17:51:12.910Z,15.53
2022-09-09T17:54:15.803Z,15.23
2022-09-09T17:57:20.293Z,14.97
2022-09-09T18:00:22.047Z,14.85
2022-09-09T18:03:37.540Z,14.89
2022-09-09T18:06:40.157Z,14.99
2022-09-09T18:09:42.872Z,15.00
2022-09-09T18:12:46.312Z,15.03
2022-09-09T18:15:49.613Z,15.05
2022-09-09T18:18:52.235Z,15.03
2022-09-09T18:21:56.429Z,14.96
2022-09-09T18:25:04.469Z,14.99
2022-09-09T18:28:08.855Z,14.98
2022-09-09T18:31:12.167Z,14.97
2022-09-09T18:34:14.956Z,14.97
2022-09-09T18:37:19.375Z,14.95
2022-09-09T18:40:21.267Z,14.93
2022-09-09T18:43:24.989Z,14.87
2022-09-09T18:46:28.064Z,14.87
2022-09-09T18:49:29.938Z,14.87
2022-09-09T18:52:32.246Z,14.75
2022-09-09T18:55:34.126Z,14.83
2022-09-09T18:58:37.517Z,14.79
2022-09-09T19:01:39.304Z,14.76
2022-09-09T19:04:41.074Z,14.74
2022-09-09T19:07:42.847Z,14.72
2022-09-09T19:10:44.800Z,14.69
2022-09-09T19:13:51.820Z,14.70
2022-09-09T19:16:53.902Z,14.66
2022-09-09T19:19:55.668Z,14.61
2022-09-09T19:22:57.623Z,14.60
2022-09-09T19:26:03.153Z,14.57
2022-09-09T19:29:06.778Z,14.57
2022-09-09T19:35:30.096Z,14.52
2022-09-09T19:38:32.267Z,14.50
2022-09-09T19:41:38.236Z,14.47
2022-09-09T19:44:41.745Z,14.48
2022-09-09T19:47:44.250Z,14.46
2022-09-09T19:50:45.898Z,14.43
2022-09-09T19:53:53.543Z,14.38
2022-09-09T19:56:55.447Z,14.37
2022-09-09T19:59:58.672Z,14.33
2022-09-09T20:03:18.002Z,14.30
2022-09-09T20:06:21.191Z,14.30
2022-09-09T20:09:22.842Z,14.28
2022-09-09T20:12:25.982Z,14.31
2022-09-09T20:15:29.108Z,14.28
2022-09-09T20:18:32.533Z,14.23
2022-09-09T20:21:35.525Z,14.20
2022-09-09T20:24:37.187Z,14.17
2022-09-09T20:27:38.741Z,14.16
2022-09-09T20:30:42.652Z,14.19
2022-09-09T20:33:44.343Z,14.19
2022-09-09T20:36:46.617Z,14.19
2022-09-09T20:39:48.551Z,14.20
2022-09-09T20:42:51.532Z,14.22
2022-09-09T20:45:57.977Z,14.14
2022-09-09T20:49:03.084Z,14.13
2022-09-09T20:52:05.149Z,14.02
2022-09-09T20:55:07.879Z,14.01
2022-09-09T20:58:12.219Z,14.00
2022-09-09T21:01:16.479Z,13.98
2022-09-09T21:04:19.796Z,13.91
2022-09-09T21:07:21.540Z,13.95
2022-09-09T21:10:23.080Z,13.89
2022-09-09T21:13:26.693Z,13.95
2022-09-09T21:16:29.849Z,13.96
2022-09-09T21:19:31.606Z,13.97
2022-09-09T21:22:33.463Z,14.03
2022-09-09T21:25:35.158Z,13.98
2022-09-09T21:28:37.189Z,13.94
2022-09-09T21:31:40.655Z,13.93
2022-09-09T21:34:46.278Z,13.94
2022-09-09T21:37:47.950Z,13.92
2022-09-09T21:40:50.261Z,13.91
2022-09-09T21:43:52.753Z,13.87
2022-09-09T21:46:56.666Z,13.87
2022-09-09T21:49:58.451Z,13.86
2022-09-09T21:53:00.030Z,13.85
2022-09-09T21:56:02.134Z,13.82
2022-09-09T21:59:04.862Z,13.78
2022-09-09T22:02:11.010Z,13.76
2022-09-09T22:05:13.028Z,13.76
2022-09-09T22:08:16.622Z,13.75
2022-09-09T22:11:19.439Z,13.76
2022-09-09T22:14:21.564Z,13.78
2022-09-09T22:17:25.203Z,13.79
2022-09-09T22:20:26.956Z,13.79
2022-09-09T22:23:29.609Z,13.81
2022-09-09T22:26:33.596Z,13.79
2022-09-09T22:29:35.506Z,13.77
2022-09-09T22:32:38.936Z,13.76
2022-09-09T22:35:42.545Z,13.76
2022-09-09T22:38:44.311Z,13.76
2022-09-09T22:41:48.312Z,13.74
2022-09-09T22:44:49.830Z,13.76
2022-09-09T22:47:52.976Z,13.73
2022-09-09T22:50:54.527Z,13.71
2022-09-09T22:53:57.980Z,13.67
2022-09-09T22:56:59.897Z,13.64
2022-09-09T23:00:01.564Z,13.65
2022-09-09T23:03:04.458Z,13.61
2022-09-09T23:06:08.104Z,13.58
2022-09-09T23:09:13.686Z,13.56
2022-09-09T23:12:16.191Z,13.53
2022-09-09T23:15:17.865Z,13.53
2022-09-09T23:18:22.294Z,13.52
2022-09-09T23:21:26.286Z,13.51
2022-09-09T23:24:28.285Z,13.49
2022-09-09T23:27:30.329Z,13.49
2022-09-09T23:30:31.833Z,13.51
2022-09-09T23:33:35.504Z,13.51
2022-09-09T23:36:37.897Z,13.50
2022-09-09T23:39:40.526Z,13.49
2022-09-09T23:42:47.953Z,13.44
2022-09-09T23:45:52.880Z,13.39
2022-09-09T23:48:57.130Z,13.37
2022-09-09T23:52:00.381Z,13.33
2022-09-09T23:55:01.791Z,13.30
2022-09-09T23:58:03.456Z,13.25
